Weather at Montana

Public forecast

Using degrees Celsius for public forecast. Weather courtesy of forecast.io.

Closest aviation weather report (METAR) to Montana

Closest report is Sofia Airport, 41.7 nm (77.2 km) S.

2022/12/10 01:00 (retrieved 40 minutes ago)

LBSF 100100Z AUTO 35003KT 230V030 9999 FEW053/// 08/05 Q1010 NOSIG

Closest aviation forecast (TAF) to Montana

Forecast is more than 12 hours old.

Closest forecast is Kuk√ęs International Airport, 149.4 nm (276.6 km) WSW.

2022/12/09 12:00 Ammendment (retrieved 14 hours ago)

TAF AMD LAKU 091530Z 0912/1012 CNL